Kanab, UT (84741)

5:08 AM MDT on September 01, 2015 (GMT -0600)
RAWS | | Change Station
CLOSE
Current Station
Personal Weather Station
Location: Canyon Point, UT
Elevation: 5846 ft
Nearby Weather Stations

Elev 5846 ft 37.14 °N, 112.45 °W | Updated 37 minutes ago

Clear
Clear
60 °F
Feels Like 60 °F
N
1
Wind Variable Wind from WNW
Gusts 7.0 mph

Today
High -- | Low -- °F
--% Chance of Precip.
Yesterday
High -- | Low -- °F
Precip. -- in
6:59 AM 7:57 PM
Waning Gibbous, 89% visible
Pressure 29.88 in
Visibility 10.0 miles
Clouds Few 9500 ft
Scattered Clouds 11000 ft
Dew Point 51 °F
Humidity 73%
Rainfall in
Snow Depth Not available.
UV 0 out of 12
Pollen 7.00 out of 12
Air Quality Not available.
Flu Activity Not available.
METAR KPGA 011053Z AUTO 20008KT 10SM FEW095 SCT110 22/12 A3008 RMK AO2 SLP119 T02170117 TSNO
Pressure 29.88 in
Visibility 10.0 miles
Clouds Few 9500 ft
Scattered Clouds 11000 ft
Dew Point 51 °F
Humidity 73%
Rainfall in
Snow Depth Not available.
UV 0 out of 12
Pollen 7.00 out of 12
Air Quality Not available.
Flu Activity Not available.
METAR KPGA 011053Z AUTO 20008KT 10SM FEW095 SCT110 22/12 A3008 RMK AO2 SLP119 T02170117 TSNO
Nowcast | as of 4:34 am MDT on September 1, 2015

At 432 am...scattered showers and thunderstorms over southern Utah will produce cloud to ground lightning...brief heavy rain and gusty winds over portions of western Kane County and the Escalante and Boulder Mountains through 630 am.

×

10-Day Weather Forecast

×

Almanac

Astronomy

Sep. 01, 2015 Rise Set
Actual Time
Civil Twilight
Nautical Twilight
Astronomical Twilight
Moon
Length of Visible Light
Length of Day
Tomorrow will be .
, % of the Moon is Illuminated

Today's Extremes

State Highs State Lows

Community

WunderPhotos

Upload Photos

1,851,501 photos uploaded!

WunderBlogs® & News

Nearby

Air Quality

  Air Quality AQ Index Pollutant
Not available.

Snow Depth

Station Depth Elevation

Earthquake Activity

City Distance Mag. Time & Date
Minimum magnitude displayed is 2.5.

Coastal Water Temperatures

Place Temperature

Stations

Nearby Weather Stations

Station Location Temp. Windchill Dew Point Humidity Wind Precip. Elev Updated Type